sensor_id;sensor_type;location;lat;lon;timestamp;noise_LAeq;noise_LA_min;noise_LA_max;noise_LA01;noise_LA95
71020;Laerm;58902;51.436;5.980;2022-08-25T00:00:09;39.18;34.21;50.10;;
71020;Laerm;58902;51.436;5.980;2022-08-25T00:00:20;35.49;33.91;39.49;;
71020;Laerm;58902;51.436;5.980;2022-08-25T00:00:30;35.37;33.92;37.52;;
71020;Laerm;58902;51.436;5.980;2022-08-25T00:00:41;35.51;34.20;36.87;;
71020;Laerm;58902;51.436;5.980;2022-08-25T00:00:54;35.22;33.25;37.88;;
71020;Laerm;58902;51.436;5.980;2022-08-25T00:01:12;34.67;33.19;36.88;;
71020;Laerm;58902;51.436;5.980;2022-08-25T00:01:24;33.82;32.14;35.66;;
71020;Laerm;58902;51.436;5.980;2022-08-25T00:01:37;33.53;31.79;37.43;;
71020;Laerm;58902;51.436;5.980;2022-08-25T00:01:53;33.56;31.97;35.26;;
71020;Laerm;58902;51.436;5.980;2022-08-25T00:02:04;34.07;32.37;36.31;;
71020;Laerm;58902;51.436;5.980;2022-08-25T00:02:15;33.92;32.56;37.79;;
71020;Laerm;58902;51.436;5.980;2022-08-25T00:02:26;34.16;32.49;37.58;;
71020;Laerm;58902;51.436;5.980;2022-08-25T00:02:36;34.33;32.10;40.76;;
71020;Laerm;58902;51.436;5.980;2022-08-25T00:02:46;34.08;32.72;35.80;;
71020;Laerm;58902;51.436;5.980;2022-08-25T00:02:57;35.01;31.83;52.43;;
71020;Laerm;58902;51.436;5.980;2022-08-25T00:03:07;34.00;32.27;36.48;;
71020;Laerm;58902;51.436;5.980;2022-08-25T00:03:18;34.31;32.49;37.31;;
71020;Laerm;58902;51.436;5.980;2022-08-25T00:03:28;35.04;32.96;37.77;;
71020;Laerm;58902;51.436;5.980;2022-08-25T00:03:39;36.29;33.67;39.86;;
71020;Laerm;58902;51.436;5.980;2022-08-25T00:03:50;37.34;34.44;40.80;;
71020;Laerm;58902;51.436;5.980;2022-08-25T00:04:02;36.98;34.17;41.86;;
71020;Laerm;58902;51.436;5.980;2022-08-25T00:04:13;35.71;33.35;39.24;;
71020;Laerm;58902;51.436;5.980;2022-08-25T00:04:24;34.99;33.27;37.78;;
71020;Laerm;58902;51.436;5.980;2022-08-25T00:04:34;34.50;32.38;36.37;;
71020;Laerm;58902;51.436;5.980;2022-08-25T00:04:45;34.09;32.15;35.69;;
71020;Laerm;58902;51.436;5.980;2022-08-25T00:04:56;34.27;32.55;36.10;;
71020;Laerm;58902;51.436;5.980;2022-08-25T00:05:06;34.38;32.25;46.00;;
71020;Laerm;58902;51.436;5.980;2022-08-25T00:05:16;34.80;32.40;42.11;;
71020;Laerm;58902;51.436;5.980;2022-08-25T00:05:27;33.90;32.37;35.88;;
71020;Laerm;58902;51.436;5.980;2022-08-25T00:05:38;34.26;32.31;37.77;;
71020;Laerm;58902;51.436;5.980;2022-08-25T00:05:49;34.03;32.01;37.14;;
71020;Laerm;58902;51.436;5.980;2022-08-25T00:05:59;34.35;31.93;39.35;;
71020;Laerm;58902;51.436;5.980;2022-08-25T00:06:09;34.39;32.31;36.31;;
71020;Laerm;58902;51.436;5.980;2022-08-25T00:06:20;34.45;32.46;36.56;;
71020;Laerm;58902;51.436;5.980;2022-08-25T00:06:31;34.32;32.62;35.93;;
71020;Laerm;58902;51.436;5.980;2022-08-25T00:06:42;34.63;32.72;36.65;;
71020;Laerm;58902;51.436;5.980;2022-08-25T00:06:52;34.33;32.61;36.81;;
71020;Laerm;58902;51.436;5.980;2022-08-25T00:07:04;34.18;32.52;35.81;;
71020;Laerm;58902;51.436;5.980;2022-08-25T00:07:15;34.18;32.41;40.36;;
71020;Laerm;58902;51.436;5.980;2022-08-25T00:07:25;33.99;32.20;35.83;;
71020;Laerm;58902;51.436;5.980;2022-08-25T00:07:36;34.54;32.42;36.78;;
71020;Laerm;58902;51.436;5.980;2022-08-25T00:07:46;34.72;33.39;37.22;;
71020;Laerm;58902;51.436;5.980;2022-08-25T00:07:56;34.43;32.67;36.02;;
71020;Laerm;58902;51.436;5.980;2022-08-25T00:08:07;34.12;32.71;39.36;;
71020;Laerm;58902;51.436;5.980;2022-08-25T00:08:17;33.95;32.10;35.70;;
71020;Laerm;58902;51.436;5.980;2022-08-25T00:08:28;34.25;32.33;40.11;;
71020;Laerm;58902;51.436;5.980;2022-08-25T00:08:39;34.20;32.41;36.51;;
71020;Laerm;58902;51.436;5.980;2022-08-25T00:08:49;34.47;32.33;36.81;;
71020;Laerm;58902;51.436;5.980;2022-08-25T00:09:00;34.66;32.01;37.57;;
71020;Laerm;58902;51.436;5.980;2022-08-25T00:09:11;35.03;32.49;41.05;;
71020;Laerm;58902;51.436;5.980;2022-08-25T00:09:24;34.96;32.47;40.02;;
71020;Laerm;58902;51.436;5.980;2022-08-25T00:09:35;34.00;32.26;35.60;;
71020;Laerm;58902;51.436;5.980;2022-08-25T00:09:45;34.46;32.32;38.21;;
71020;Laerm;58902;51.436;5.980;2022-08-25T00:09:56;34.41;32.76;37.42;;
71020;Laerm;58902;51.436;5.980;2022-08-25T00:10:06;34.09;32.14;35.82;;
71020;Laerm;58902;51.436;5.980;2022-08-25T00:10:17;35.02;31.70;42.88;;
71020;Laerm;58902;51.436;5.980;2022-08-25T00:10:28;34.05;32.11;37.79;;
71020;Laerm;58902;51.436;5.980;2022-08-25T00:10:39;34.01;32.55;35.69;;
71020;Laerm;58902;51.436;5.980;2022-08-25T00:10:50;34.52;32.22;40.21;;
71020;Laerm;58902;51.436;5.980;2022-08-25T00:11:00;34.23;31.83;40.43;;
71020;Laerm;58902;51.436;5.980;2022-08-25T00:11:17;33.80;31.75;35.69;;
71020;Laerm;58902;51.436;5.980;2022-08-25T00:11:29;33.47;31.15;41.88;;
71020;Laerm;58902;51.436;5.980;2022-08-25T00:11:40;33.18;31.50;35.82;;
71020;Laerm;58902;51.436;5.980;2022-08-25T00:11:51;33.27;31.84;35.12;;
71020;Laerm;58902;51.436;5.980;2022-08-25T00:12:03;33.15;31.59;36.96;;
71020;Laerm;58902;51.436;5.980;2022-08-25T00:12:13;33.17;31.21;35.33;;
71020;Laerm;58902;51.436;5.980;2022-08-25T00:12:24;33.23;31.40;35.03;;
71020;Laerm;58902;51.436;5.980;2022-08-25T00:12:35;33.13;31.56;34.71;;
71020;Laerm;58902;51.436;5.980;2022-08-25T00:12:45;33.18;31.45;34.93;;
71020;Laerm;58902;51.436;5.980;2022-08-25T00:12:55;33.19;31.31;35.39;;
71020;Laerm;58902;51.436;5.980;2022-08-25T00:13:06;34.14;31.66;37.58;;
71020;Laerm;58902;51.436;5.980;2022-08-25T00:13:16;34.26;31.86;37.57;;
71020;Laerm;58902;51.436;5.980;2022-08-25T00:13:27;35.22;32.41;42.36;;
71020;Laerm;58902;51.436;5.980;2022-08-25T00:13:38;35.33;32.84;41.81;;
71020;Laerm;58902;51.436;5.980;2022-08-25T00:13:52;34.56;32.80;36.35;;
71020;Laerm;58902;51.436;5.980;2022-08-25T00:14:06;34.31;32.26;35.99;;
71020;Laerm;58902;51.436;5.980;2022-08-25T00:14:19;33.81;31.87;35.64;;
71020;Laerm;58902;51.436;5.980;2022-08-25T00:14:31;33.96;31.80;36.01;;
71020;Laerm;58902;51.436;5.980;2022-08-25T00:14:42;33.50;31.44;35.14;;
71020;Laerm;58902;51.436;5.980;2022-08-25T00:14:53;33.63;31.47;36.94;;
71020;Laerm;58902;51.436;5.980;2022-08-25T00:15:04;33.94;31.71;38.85;;
71020;Laerm;58902;51.436;5.980;2022-08-25T00:15:14;33.96;31.58;36.63;;
71020;Laerm;58902;51.436;5.980;2022-08-25T00:15:25;34.25;32.66;36.15;;
71020;Laerm;58902;51.436;5.980;2022-08-25T00:15:35;35.03;32.67;37.03;;
71020;Laerm;58902;51.436;5.980;2022-08-25T00:15:47;35.65;33.17;37.81;;
71020;Laerm;58902;51.436;5.980;2022-08-25T00:15:57;35.58;33.45;37.26;;
71020;Laerm;58902;51.436;5.980;2022-08-25T00:16:11;34.53;32.39;36.35;;
71020;Laerm;58902;51.436;5.980;2022-08-25T00:16:21;34.31;32.27;39.21;;
71020;Laerm;58902;51.436;5.980;2022-08-25T00:16:35;34.19;32.22;35.72;;
71020;Laerm;58902;51.436;5.980;2022-08-25T00:16:45;34.37;32.40;37.71;;
71020;Laerm;58902;51.436;5.980;2022-08-25T00:16:56;33.94;31.96;37.16;;
71020;Laerm;58902;51.436;5.980;2022-08-25T00:17:06;33.92;31.57;35.34;;
71020;Laerm;58902;51.436;5.980;2022-08-25T00:17:16;34.53;32.17;37.51;;
71020;Laerm;58902;51.436;5.980;2022-08-25T00:17:27;34.04;32.27;35.67;;
71020;Laerm;58902;51.436;5.980;2022-08-25T00:17:37;34.16;32.18;35.86;;
71020;Laerm;58902;51.436;5.980;2022-08-25T00:17:48;34.81;32.72;37.31;;
71020;Laerm;58902;51.436;5.980;2022-08-25T00:17:58;35.21;33.26;37.09;;
71020;Laerm;58902;51.436;5.980;2022-08-25T00:18:09;35.23;33.18;36.86;;
71020;Laerm;58902;51.436;5.980;2022-08-25T00:18:20;34.21;32.35;38.40;;
71020;Laerm;58902;51.436;5.980;2022-08-25T00:18:30;33.76;30.85;50.97;;
71020;Laerm;58902;51.436;5.980;2022-08-25T00:18:41;32.62;30.99;41.13;;
71020;Laerm;58902;51.436;5.980;2022-08-25T00:18:55;33.66;30.86;35.23;;
71020;Laerm;58902;51.436;5.980;2022-08-25T00:19:09;33.76;32.21;35.24;;
71020;Laerm;58902;51.436;5.980;2022-08-25T00:19:22;34.14;31.21;36.90;;
71020;Laerm;58902;51.436;5.980;2022-08-25T00:19:34;33.29;30.64;37.19;;
71020;Laerm;58902;51.436;5.980;2022-08-25T00:19:45;34.86;32.00;37.80;;
71020;Laerm;58902;51.436;5.980;2022-08-25T00:19:55;33.59;31.29;36.33;;
71020;Laerm;58902;51.436;5.980;2022-08-25T00:20:06;33.14;31.44;36.72;;
71020;Laerm;58902;51.436;5.980;2022-08-25T00:20:18;35.09;32.10;40.93;;
71020;Laerm;58902;51.436;5.980;2022-08-25T00:20:29;33.80;32.05;35.61;;
71020;Laerm;58902;51.436;5.980;2022-08-25T00:20:39;33.44;31.48;35.37;;
71020;Laerm;58902;51.436;5.980;2022-08-25T00:20:49;32.51;30.60;34.23;;
71020;Laerm;58902;51.436;5.980;2022-08-25T00:21:00;32.26;30.65;33.55;;
71020;Laerm;58902;51.436;5.980;2022-08-25T00:21:11;32.49;30.96;37.92;;
71020;Laerm;58902;51.436;5.980;2022-08-25T00:21:23;32.40;30.98;37.80;;
71020;Laerm;58902;51.436;5.980;2022-08-25T00:21:34;32.46;31.09;35.02;;
71020;Laerm;58902;51.436;5.980;2022-08-25T00:21:44;32.78;31.09;35.16;;
71020;Laerm;58902;51.436;5.980;2022-08-25T00:21:55;32.92;30.59;37.35;;
71020;Laerm;58902;51.436;5.980;2022-08-25T00:22:06;32.89;31.32;37.74;;
71020;Laerm;58902;51.436;5.980;2022-08-25T00:22:16;32.65;31.26;34.91;;
71020;Laerm;58902;51.436;5.980;2022-08-25T00:22:27;32.42;30.79;36.25;;
71020;Laerm;58902;51.436;5.980;2022-08-25T00:22:38;32.52;31.05;34.03;;
71020;Laerm;58902;51.436;5.980;2022-08-25T00:22:48;34.07;30.58;42.18;;
71020;Laerm;58902;51.436;5.980;2022-08-25T00:22:58;32.86;30.72;39.29;;
71020;Laerm;58902;51.436;5.980;2022-08-25T00:23:09;32.45;30.18;41.15;;
71020;Laerm;58902;51.436;5.980;2022-08-25T00:23:19;32.30;30.66;35.05;;
71020;Laerm;58902;51.436;5.980;2022-08-25T00:23:30;31.64;29.89;33.68;;
71020;Laerm;58902;51.436;5.980;2022-08-25T00:23:40;31.81;30.30;35.62;;
71020;Laerm;58902;51.436;5.980;2022-08-25T00:23:51;31.71;30.37;34.03;;
71020;Laerm;58902;51.436;5.980;2022-08-25T00:24:01;31.33;29.69;32.69;;
71020;Laerm;58902;51.436;5.980;2022-08-25T00:24:13;31.35;30.13;32.97;;
71020;Laerm;58902;51.436;5.980;2022-08-25T00:24:24;31.17;29.80;32.81;;
71020;Laerm;58902;51.436;5.980;2022-08-25T00:24:34;31.29;29.74;35.00;;
71020;Laerm;58902;51.436;5.980;2022-08-25T00:24:44;32.18;30.13;36.54;;
71020;Laerm;58902;51.436;5.980;2022-08-25T00:24:55;34.02;30.31;37.95;;
71020;Laerm;58902;51.436;5.980;2022-08-25T00:25:05;34.33;30.61;38.26;;
71020;Laerm;58902;51.436;5.980;2022-08-25T00:25:17;34.03;30.64;42.71;;
71020;Laerm;58902;51.436;5.980;2022-08-25T00:25:27;33.66;31.05;38.58;;
71020;Laerm;58902;51.436;5.980;2022-08-25T00:25:37;32.47;31.23;34.65;;
71020;Laerm;58902;51.436;5.980;2022-08-25T00:25:48;32.51;30.22;37.75;;
71020;Laerm;58902;51.436;5.980;2022-08-25T00:26:00;32.65;30.64;39.54;;
71020;Laerm;58902;51.436;5.980;2022-08-25T00:26:11;32.65;31.07;35.97;;
71020;Laerm;58902;51.436;5.980;2022-08-25T00:26:21;32.90;31.10;36.29;;
71020;Laerm;58902;51.436;5.980;2022-08-25T00:26:32;32.24;30.77;34.21;;
71020;Laerm;58902;51.436;5.980;2022-08-25T00:26:44;32.32;30.56;34.03;;
71020;Laerm;58902;51.436;5.980;2022-08-25T00:26:55;32.73;30.99;39.74;;
71020;Laerm;58902;51.436;5.980;2022-08-25T00:27:06;32.85;31.22;34.14;;
71020;Laerm;58902;51.436;5.980;2022-08-25T00:27:16;33.08;31.68;36.62;;
71020;Laerm;58902;51.436;5.980;2022-08-25T00:27:27;33.34;31.76;38.03;;
71020;Laerm;58902;51.436;5.980;2022-08-25T00:27:37;33.53;31.72;47.04;;
71020;Laerm;58902;51.436;5.980;2022-08-25T00:27:48;32.70;30.65;34.74;;
71020;Laerm;58902;51.436;5.980;2022-08-25T00:27:59;31.83;30.05;35.27;;
71020;Laerm;58902;51.436;5.980;2022-08-25T00:28:09;32.17;30.49;37.20;;
71020;Laerm;58902;51.436;5.980;2022-08-25T00:28:20;32.16;30.33;34.71;;
71020;Laerm;58902;51.436;5.980;2022-08-25T00:28:30;33.12;31.09;37.52;;
71020;Laerm;58902;51.436;5.980;2022-08-25T00:28:41;33.99;31.14;38.31;;
71020;Laerm;58902;51.436;5.980;2022-08-25T00:28:52;33.47;31.41;36.51;;
71020;Laerm;58902;51.436;5.980;2022-08-25T00:29:02;33.04;31.35;34.50;;
71020;Laerm;58902;51.436;5.980;2022-08-25T00:29:13;34.88;31.13;38.87;;
71020;Laerm;58902;51.436;5.980;2022-08-25T00:29:24;39.55;31.05;60.62;;
71020;Laerm;58902;51.436;5.980;2022-08-25T00:29:35;35.48;30.73;39.07;;
71020;Laerm;58902;51.436;5.980;2022-08-25T00:29:47;35.51;31.13;38.99;;
71020;Laerm;58902;51.436;5.980;2022-08-25T00:29:57;35.53;30.99;38.94;;
71020;Laerm;58902;51.436;5.980;2022-08-25T00:30:08;35.94;30.43;39.16;;
71020;Laerm;58902;51.436;5.980;2022-08-25T00:30:19;36.04;31.33;39.12;;
71020;Laerm;58902;51.436;5.980;2022-08-25T00:30:29;35.75;30.81;39.88;;
71020;Laerm;58902;51.436;5.980;2022-08-25T00:30:40;32.65;31.23;34.26;;
71020;Laerm;58902;51.436;5.980;2022-08-25T00:30:50;32.76;30.85;35.33;;
71020;Laerm;58902;51.436;5.980;2022-08-25T00:31:00;33.31;31.88;36.80;;
71020;Laerm;58902;51.436;5.980;2022-08-25T00:31:12;32.89;31.41;35.89;;
71020;Laerm;58902;51.436;5.980;2022-08-25T00:31:23;35.98;30.98;46.93;;
71020;Laerm;58902;51.436;5.980;2022-08-25T00:31:34;33.36;31.43;36.11;;
71020;Laerm;58902;51.436;5.980;2022-08-25T00:31:44;33.28;31.82;34.78;;
71020;Laerm;58902;51.436;5.980;2022-08-25T00:31:57;33.24;31.02;40.95;;
71020;Laerm;58902;51.436;5.980;2022-08-25T00:32:08;32.33;31.19;33.73;;
71020;Laerm;58902;51.436;5.980;2022-08-25T00:32:18;32.56;31.04;35.00;;
71020;Laerm;58902;51.436;5.980;2022-08-25T00:32:29;32.47;31.21;34.49;;
71020;Laerm;58902;51.436;5.980;2022-08-25T00:32:39;32.50;31.23;34.95;;
71020;Laerm;58902;51.436;5.980;2022-08-25T00:32:50;32.48;31.20;35.69;;
71020;Laerm;58902;51.436;5.980;2022-08-25T00:33:00;32.50;31.06;34.34;;
71020;Laerm;58902;51.436;5.980;2022-08-25T00:33:10;32.52;31.15;38.35;;
71020;Laerm;58902;51.436;5.980;2022-08-25T00:33:21;32.49;30.70;33.95;;
71020;Laerm;58902;51.436;5.980;2022-08-25T00:33:31;32.38;30.93;35.13;;
71020;Laerm;58902;51.436;5.980;2022-08-25T00:33:43;32.56;31.06;34.28;;
71020;Laerm;58902;51.436;5.980;2022-08-25T00:33:53;32.53;31.05;34.52;;
71020;Laerm;58902;51.436;5.980;2022-08-25T00:34:06;32.29;30.90;33.68;;
71020;Laerm;58902;51.436;5.980;2022-08-25T00:34:19;32.49;30.73;42.60;;
71020;Laerm;58902;51.436;5.980;2022-08-25T00:34:32;32.55;31.00;36.64;;
71020;Laerm;58902;51.436;5.980;2022-08-25T00:34:43;32.39;30.87;35.09;;
71020;Laerm;58902;51.436;5.980;2022-08-25T00:34:54;33.83;31.19;40.80;;
71020;Laerm;58902;51.436;5.980;2022-08-25T00:35:04;33.48;30.92;37.50;;
71020;Laerm;58902;51.436;5.980;2022-08-25T00:35:15;33.98;30.96;41.67;;
71020;Laerm;58902;51.436;5.980;2022-08-25T00:35:26;33.80;31.13;36.61;;
71020;Laerm;58902;51.436;5.980;2022-08-25T00:35:36;33.32;30.29;37.83;;
71020;Laerm;58902;51.436;5.980;2022-08-25T00:35:46;32.91;30.59;35.80;;
71020;Laerm;58902;51.436;5.980;2022-08-25T00:35:57;33.09;31.01;36.03;;
71020;Laerm;58902;51.436;5.980;2022-08-25T00:36:07;33.12;30.77;37.49;;
71020;Laerm;58902;51.436;5.980;2022-08-25T00:36:21;32.12;30.40;33.89;;
71020;Laerm;58902;51.436;5.980;2022-08-25T00:36:32;32.00;30.52;33.66;;
71020;Laerm;58902;51.436;5.980;2022-08-25T00:36:43;31.89;30.17;34.70;;
71020;Laerm;58902;51.436;5.980;2022-08-25T00:36:54;31.84;30.23;33.61;;
71020;Laerm;58902;51.436;5.980;2022-08-25T00:37:05;31.74;29.91;33.31;;
71020;Laerm;58902;51.436;5.980;2022-08-25T00:37:16;31.78;30.38;33.79;;
71020;Laerm;58902;51.436;5.980;2022-08-25T00:37:26;31.62;29.94;34.09;;
71020;Laerm;58902;51.436;5.980;2022-08-25T00:37:37;31.82;30.24;36.24;;
71020;Laerm;58902;51.436;5.980;2022-08-25T00:37:47;31.72;30.13;35.02;;
71020;Laerm;58902;51.436;5.980;2022-08-25T00:37:57;31.50;29.56;33.48;;
71020;Laerm;58902;51.436;5.980;2022-08-25T00:38:08;31.69;30.00;33.39;;
71020;Laerm;58902;51.436;5.980;2022-08-25T00:38:19;31.71;30.04;33.81;;
71020;Laerm;58902;51.436;5.980;2022-08-25T00:38:29;31.70;30.21;33.63;;
71020;Laerm;58902;51.436;5.980;2022-08-25T00:38:44;31.79;29.91;37.83;;
71020;Laerm;58902;51.436;5.980;2022-08-25T00:38:54;31.81;30.45;34.26;;
71020;Laerm;58902;51.436;5.980;2022-08-25T00:39:06;32.02;29.98;40.02;;
71020;Laerm;58902;51.436;5.980;2022-08-25T00:39:17;31.73;30.12;37.26;;
71020;Laerm;58902;51.436;5.980;2022-08-25T00:39:30;31.68;29.96;33.36;;
71020;Laerm;58902;51.436;5.980;2022-08-25T00:39:40;31.61;30.07;33.08;;
71020;Laerm;58902;51.436;5.980;2022-08-25T00:39:50;31.76;30.05;34.08;;
71020;Laerm;58902;51.436;5.980;2022-08-25T00:40:03;31.44;29.80;32.80;;
71020;Laerm;58902;51.436;5.980;2022-08-25T00:40:13;31.64;30.16;33.36;;
71020;Laerm;58902;51.436;5.980;2022-08-25T00:40:25;31.70;30.31;34.67;;
71020;Laerm;58902;51.436;5.980;2022-08-25T00:40:35;32.04;29.70;36.59;;
71020;Laerm;58902;51.436;5.980;2022-08-25T00:40:46;32.10;29.78;34.28;;
71020;Laerm;58902;51.436;5.980;2022-08-25T00:41:17;34.89;30.64;40.08;;
71020;Laerm;58902;51.436;5.980;2022-08-25T00:41:28;33.22;30.21;36.99;;
71020;Laerm;58902;51.436;5.980;2022-08-25T00:41:39;32.06;30.32;35.04;;
71020;Laerm;58902;51.436;5.980;2022-08-25T00:41:51;32.11;30.38;37.44;;
71020;Laerm;58902;51.436;5.980;2022-08-25T00:42:02;33.03;30.65;37.58;;
71020;Laerm;58902;51.436;5.980;2022-08-25T00:42:13;34.95;31.56;46.76;;
71020;Laerm;58902;51.436;5.980;2022-08-25T00:42:24;35.60;32.60;39.17;;
71020;Laerm;58902;51.436;5.980;2022-08-25T00:42:34;34.99;31.72;40.14;;
71020;Laerm;58902;51.436;5.980;2022-08-25T00:42:45;35.40;33.29;39.41;;
71020;Laerm;58902;51.436;5.980;2022-08-25T00:42:55;34.73;32.45;38.09;;
71020;Laerm;58902;51.436;5.980;2022-08-25T00:43:06;34.26;32.51;35.83;;
71020;Laerm;58902;51.436;5.980;2022-08-25T00:43:16;34.39;32.47;37.20;;
71020;Laerm;58902;51.436;5.980;2022-08-25T00:43:31;33.56;31.70;35.54;;
71020;Laerm;58902;51.436;5.980;2022-08-25T00:43:44;33.37;31.90;35.10;;
71020;Laerm;58902;51.436;5.980;2022-08-25T00:43:56;33.61;31.32;35.07;;
71020;Laerm;58902;51.436;5.980;2022-08-25T00:44:08;33.68;31.63;36.87;;
71020;Laerm;58902;51.436;5.980;2022-08-25T00:44:19;33.38;31.59;35.16;;
71020;Laerm;58902;51.436;5.980;2022-08-25T00:44:30;33.58;31.92;35.27;;
71020;Laerm;58902;51.436;5.980;2022-08-25T00:44:41;33.46;31.48;35.08;;
71020;Laerm;58902;51.436;5.980;2022-08-25T00:44:52;33.55;31.96;39.01;;
71020;Laerm;58902;51.436;5.980;2022-08-25T00:45:04;33.27;31.18;34.82;;
71020;Laerm;58902;51.436;5.980;2022-08-25T00:45:16;33.24;31.32;38.02;;
71020;Laerm;58902;51.436;5.980;2022-08-25T00:45:27;33.14;31.14;34.88;;
71020;Laerm;58902;51.436;5.980;2022-08-25T00:45:38;33.25;31.72;35.39;;
71020;Laerm;58902;51.436;5.980;2022-08-25T00:45:49;33.20;31.06;35.59;;
71020;Laerm;58902;51.436;5.980;2022-08-25T00:45:59;33.26;31.56;34.76;;
71020;Laerm;58902;51.436;5.980;2022-08-25T00:46:10;33.24;31.66;35.02;;
71020;Laerm;58902;51.436;5.980;2022-08-25T00:46:23;33.12;30.74;34.81;;
71020;Laerm;58902;51.436;5.980;2022-08-25T00:46:39;33.16;31.29;34.69;;
71020;Laerm;58902;51.436;5.980;2022-08-25T00:46:51;33.00;31.10;36.88;;
71020;Laerm;58902;51.436;5.980;2022-08-25T00:47:02;34.18;31.41;37.33;;
71020;Laerm;58902;51.436;5.980;2022-08-25T00:47:13;34.52;32.23;37.83;;
71020;Laerm;58902;51.436;5.980;2022-08-25T00:47:24;35.67;32.40;42.24;;
71020;Laerm;58902;51.436;5.980;2022-08-25T00:47:35;34.82;32.71;36.85;;
71020;Laerm;58902;51.436;5.980;2022-08-25T00:47:45;34.92;33.40;36.62;;
71020;Laerm;58902;51.436;5.980;2022-08-25T00:47:56;34.62;32.30;36.57;;
71020;Laerm;58902;51.436;5.980;2022-08-25T00:48:06;33.95;32.45;35.79;;
71020;Laerm;58902;51.436;5.980;2022-08-25T00:48:16;33.87;32.41;35.61;;
71020;Laerm;58902;51.436;5.980;2022-08-25T00:48:27;33.78;32.15;35.36;;
71020;Laerm;58902;51.436;5.980;2022-08-25T00:48:37;33.96;32.15;35.68;;
71020;Laerm;58902;51.436;5.980;2022-08-25T00:48:50;34.05;32.31;35.68;;
71020;Laerm;58902;51.436;5.980;2022-08-25T00:49:02;33.89;32.20;35.71;;
71020;Laerm;58902;51.436;5.980;2022-08-25T00:49:14;33.87;31.87;35.60;;
71020;Laerm;58902;51.436;5.980;2022-08-25T00:49:27;34.16;32.14;36.13;;
71020;Laerm;58902;51.436;5.980;2022-08-25T00:49:49;34.66;33.03;37.39;;
71020;Laerm;58902;51.436;5.980;2022-08-25T00:50:03;34.60;31.71;42.30;;
71020;Laerm;58902;51.436;5.980;2022-08-25T00:50:14;33.81;32.02;35.54;;
71020;Laerm;58902;51.436;5.980;2022-08-25T00:50:26;34.67;32.13;42.48;;
71020;Laerm;58902;51.436;5.980;2022-08-25T00:50:37;33.97;31.77;36.87;;
71020;Laerm;58902;51.436;5.980;2022-08-25T00:50:47;34.10;31.97;36.18;;
71020;Laerm;58902;51.436;5.980;2022-08-25T00:50:58;33.83;31.59;41.46;;
71020;Laerm;58902;51.436;5.980;2022-08-25T00:51:10;33.21;31.24;34.95;;
71020;Laerm;58902;51.436;5.980;2022-08-25T00:51:45;33.11;31.55;35.01;;
71020;Laerm;58902;51.436;5.980;2022-08-25T00:52:06;33.12;31.09;36.75;;
71020;Laerm;58902;51.436;5.980;2022-08-25T00:52:23;32.97;31.00;34.67;;
71020;Laerm;58902;51.436;5.980;2022-08-25T00:52:38;33.18;31.52;35.55;;
71020;Laerm;58902;51.436;5.980;2022-08-25T00:52:51;33.25;31.29;36.52;;
71020;Laerm;58902;51.436;5.980;2022-08-25T00:53:03;33.03;30.88;34.69;;
71020;Laerm;58902;51.436;5.980;2022-08-25T00:53:14;33.10;31.56;34.78;;
71020;Laerm;58902;51.436;5.980;2022-08-25T00:53:25;33.22;31.62;34.78;;
71020;Laerm;58902;51.436;5.980;2022-08-25T00:53:36;33.07;31.21;34.59;;
71020;Laerm;58902;51.436;5.980;2022-08-25T00:53:46;33.17;31.53;36.42;;
71020;Laerm;58902;51.436;5.980;2022-08-25T00:53:57;32.99;31.33;34.90;;
71020;Laerm;58902;51.436;5.980;2022-08-25T00:54:08;33.23;31.01;35.81;;
71020;Laerm;58902;51.436;5.980;2022-08-25T00:54:23;33.01;30.99;35.42;;
71020;Laerm;58902;51.436;5.980;2022-08-25T00:55:13;33.19;31.30;35.61;;
71020;Laerm;58902;51.436;5.980;2022-08-25T00:55:27;34.89;31.83;41.71;;
71020;Laerm;58902;51.436;5.980;2022-08-25T00:55:38;34.62;32.90;36.26;;
71020;Laerm;58902;51.436;5.980;2022-08-25T00:55:49;34.20;32.34;35.89;;
71020;Laerm;58902;51.436;5.980;2022-08-25T00:55:59;34.17;31.73;36.40;;
71020;Laerm;58902;51.436;5.980;2022-08-25T00:56:10;34.01;32.06;36.17;;
71020;Laerm;58902;51.436;5.980;2022-08-25T00:56:22;33.93;32.33;35.44;;
71020;Laerm;58902;51.436;5.980;2022-08-25T00:56:33;33.80;32.04;35.46;;
71020;Laerm;58902;51.436;5.980;2022-08-25T00:56:44;33.88;32.02;35.50;;
71020;Laerm;58902;51.436;5.980;2022-08-25T00:56:55;33.76;31.64;35.43;;
71020;Laerm;58902;51.436;5.980;2022-08-25T00:57:08;33.78;32.17;35.38;;
71020;Laerm;58902;51.436;5.980;2022-08-25T00:57:22;33.79;31.88;35.34;;
71020;Laerm;58902;51.436;5.980;2022-08-25T00:57:40;33.47;31.81;35.45;;
71020;Laerm;58902;51.436;5.980;2022-08-25T00:58:04;33.60;31.69;38.39;;
71020;Laerm;58902;51.436;5.980;2022-08-25T00:58:21;33.91;31.77;36.29;;
71020;Laerm;58902;51.436;5.980;2022-08-25T00:58:34;34.80;32.49;37.92;;
71020;Laerm;58902;51.436;5.980;2022-08-25T00:58:46;34.99;33.39;38.16;;
71020;Laerm;58902;51.436;5.980;2022-08-25T00:58:57;35.37;33.90;37.60;;
71020;Laerm;58902;51.436;5.980;2022-08-25T00:59:08;34.76;33.52;36.58;;
71020;Laerm;58902;51.436;5.980;2022-08-25T00:59:19;34.80;33.59;35.90;;
71020;Laerm;58902;51.436;5.980;2022-08-25T00:59:30;34.85;32.47;38.41;;
71020;Laerm;58902;51.436;5.980;2022-08-25T00:59:41;33.09;31.10;35.40;;
71020;Laerm;58902;51.436;5.980;2022-08-25T00:59:52;33.53;31.29;37.80;;
71020;Laerm;58902;51.436;5.980;2022-08-25T01:00:06;33.55;31.42;36.18;;
71020;Laerm;58902;51.436;5.980;2022-08-25T01:00:25;39.88;31.98;48.84;;
71020;Laerm;58902;51.436;5.980;2022-08-25T01:00:37;33.95;31.56;40.43;;
71020;Laerm;58902;51.436;5.980;2022-08-25T01:00:48;33.40;31.74;35.90;;
71020;Laerm;58902;51.436;5.980;2022-08-25T01:00:59;33.58;31.47;36.71;;
71020;Laerm;58902;51.436;5.980;2022-08-25T01:01:10;33.34;31.78;34.84;;
71020;Laerm;58902;51.436;5.980;2022-08-25T01:01:20;33.30;32.15;34.79;;
71020;Laerm;58902;51.436;5.980;2022-08-25T01:01:31;33.45;31.19;41.09;;
71020;Laerm;58902;51.436;5.980;2022-08-25T01:01:41;32.39;30.99;35.17;;
71020;Laerm;58902;51.436;5.980;2022-08-25T01:01:52;32.32;30.27;34.34;;
71020;Laerm;58902;51.436;5.980;2022-08-25T01:02:03;32.27;30.96;33.63;;
71020;Laerm;58902;51.436;5.980;2022-08-25T01:02:14;32.22;31.03;33.67;;
71020;Laerm;58902;51.436;5.980;2022-08-25T01:02:25;32.30;30.58;37.21;;
71020;Laerm;58902;51.436;5.980;2022-08-25T01:02:36;32.23;30.64;33.81;;
71020;Laerm;58902;51.436;5.980;2022-08-25T01:02:46;32.13;30.66;34.75;;
71020;Laerm;58902;51.436;5.980;2022-08-25T01:02:57;32.11;30.88;33.70;;
71020;Laerm;58902;51.436;5.980;2022-08-25T01:03:07;32.10;30.71;34.89;;
71020;Laerm;58902;51.436;5.980;2022-08-25T01:03:18;31.86;30.71;33.56;;
71020;Laerm;58902;51.436;5.980;2022-08-25T01:03:29;32.08;30.49;33.67;;
71020;Laerm;58902;51.436;5.980;2022-08-25T01:03:42;32.09;30.54;33.62;;
71020;Laerm;58902;51.436;5.980;2022-08-25T01:03:53;33.87;30.34;44.15;;
71020;Laerm;58902;51.436;5.980;2022-08-25T01:04:03;33.01;30.70;41.20;;
71020;Laerm;58902;51.436;5.980;2022-08-25T01:04:13;32.07;30.49;35.23;;
71020;Laerm;58902;51.436;5.980;2022-08-25T01:04:24;32.48;30.31;42.76;;
71020;Laerm;58902;51.436;5.980;2022-08-25T01:04:34;31.52;30.05;35.57;;
71020;Laerm;58902;51.436;5.980;2022-08-25T01:04:46;31.57;30.09;34.16;;